Time;durP1;ratioP1;P1;durP2;ratioP2;P2;SDS_P1;SDS_P2;PMS_P1;PMS_P2;Temp;Humidity;BMP_temperature;BMP_pressure;BME280_temperature;BME280_humidity;BME280_pressure;Samples;Min_cycle;Max_cycle;Signal;HPM_P1;HPM_P2
2021/10/07 00:02:11;;;;;;;35.70;27.65;;;;;;;;;;5015249;28;20022;-64
2021/10/07 00:04:36;;;;;;;34.17;26.67;;;;;;;;;;5015488;28;20101;-63
2021/10/07 00:07:03;;;;;;;33.80;25.63;;;;;;;;;;5013788;28;20030;-65
2021/10/07 00:09:29;;;;;;;35.47;25.25;;;;;;;;;;5014808;28;20018;-61
2021/10/07 00:11:55;;;;;;;33.22;25.75;;;;;;;;;;5015034;28;20057;-63
2021/10/07 00:14:21;;;;;;;31.70;25.23;;;;;;;;;;5014803;28;20026;-62
2021/10/07 00:16:47;;;;;;;32.90;24.88;;;;;;;;;;5013502;28;20466;-63
2021/10/07 00:19:13;;;;;;;33.03;24.85;;;;;;;;;;5015028;28;20470;-62
2021/10/07 00:21:39;;;;;;;34.22;25.48;;;;;;;;;;5013467;28;20032;-64
2021/10/07 00:24:09;;;;;;;32.92;24.88;;;;;;;;;;5014477;28;20397;-64
2021/10/07 00:26:40;;;;;;;33.72;25.73;;;;;;;;;;5013132;28;20076;-61
2021/10/07 00:31:55;;;;;;;33.15;25.13;;;;;;;;;;5014733;28;20040;-61
2021/10/07 00:39:58;;;;;;;33.90;25.98;;;;;;;;;;5014672;28;20604;-63
2021/10/07 00:42:24;;;;;;;33.55;25.10;;;;;;;;;;5014345;28;20030;-63
2021/10/07 00:44:50;;;;;;;30.98;24.27;;;;;;;;;;5040058;22;20034;-59
2021/10/07 00:47:17;;;;;;;34.92;24.17;;;;;;;;;;5053691;28;20091;-63
2021/10/07 00:49:43;;;;;;;33.85;24.70;;;;;;;;;;5053365;28;20040;-62
2021/10/07 00:52:10;;;;;;;31.90;24.88;;;;;;;;;;5053988;28;20029;-60
2021/10/07 00:54:37;;;;;;;33.35;25.83;;;;;;;;;;5052667;28;20024;-61
2021/10/07 00:57:04;;;;;;;32.38;24.55;;;;;;;;;;5052204;28;20083;-61
2021/10/07 00:59:30;;;;;;;31.63;24.42;;;;;;;;;;5052213;28;20033;-61
2021/10/07 01:01:56;;;;;;;32.45;23.98;;;;;;;;;;5053628;28;20108;-62
2021/10/07 01:04:22;;;;;;;32.22;23.83;;;;;;;;;;5052358;28;20140;-60
2021/10/07 01:06:48;;;;;;;33.45;24.95;;;;;;;;;;5052195;28;20029;-62
2021/10/07 01:09:17;;;;;;;36.03;23.75;;;;;;;;;;5053334;28;20472;-61
2021/10/07 01:11:43;;;;;;;30.85;24.10;;;;;;;;;;5052037;28;20439;-60
2021/10/07 01:14:09;;;;;;;37.65;25.05;;;;;;;;;;5053516;28;20071;-61
2021/10/07 01:16:35;;;;;;;31.98;24.42;;;;;;;;;;5053677;28;20088;-61
2021/10/07 01:19:01;;;;;;;34.35;25.02;;;;;;;;;;5053710;28;20388;-61
2021/10/07 01:21:27;;;;;;;34.47;24.95;;;;;;;;;;5053119;28;20033;-62
2021/10/07 01:23:53;;;;;;;31.83;24.38;;;;;;;;;;5053441;28;20032;-60
2021/10/07 01:26:20;;;;;;;34.17;24.45;;;;;;;;;;5051835;28;20028;-61
2021/10/07 01:28:48;;;;;;;34.35;24.45;;;;;;;;;;5053006;28;20043;-62
2021/10/07 01:31:14;;;;;;;34.75;26.10;;;;;;;;;;5051625;28;20619;-62
2021/10/07 01:33:40;;;;;;;34.88;26.80;;;;;;;;;;5051681;28;20473;-61
2021/10/07 01:36:06;;;;;;;34.50;25.85;;;;;;;;;;5051800;28;20112;-61
2021/10/07 01:38:32;;;;;;;33.85;25.23;;;;;;;;;;5052805;28;20021;-62
2021/10/07 01:40:58;;;;;;;36.13;25.52;;;;;;;;;;5052501;28;20037;-58
2021/10/07 01:43:24;;;;;;;33.35;24.67;;;;;;;;;;5052883;28;20128;-63
2021/10/07 01:45:51;;;;;;;33.13;25.17;;;;;;;;;;5052384;28;20036;-60
2021/10/07 01:48:18;;;;;;;36.67;25.10;;;;;;;;;;5052580;28;20025;-61
2021/10/07 01:50:45;;;;;;;35.10;25.58;;;;;;;;;;5052355;28;20028;-61
2021/10/07 01:53:11;;;;;;;33.65;24.88;;;;;;;;;;5051373;28;20265;-61
2021/10/07 01:55:37;;;;;;;36.15;24.85;;;;;;;;;;5052209;28;20029;-61
2021/10/07 01:58:03;;;;;;;36.78;25.55;;;;;;;;;;5052504;28;20132;-60
2021/10/07 02:00:29;;;;;;;35.90;25.65;;;;;;;;;;5052105;28;20036;-60
2021/10/07 02:02:55;;;;;;;34.55;25.52;;;;;;;;;;5051093;28;20401;-58
2021/10/07 02:05:21;;;;;;;36.10;26.00;;;;;;;;;;5051102;28;20032;-61
2021/10/07 02:07:47;;;;;;;35.10;24.50;;;;;;;;;;5051060;28;20112;-61
2021/10/07 02:10:16;;;;;;;37.78;26.95;;;;;;;;;;5051884;28;20071;-60
2021/10/07 02:12:46;;;;;;;40.25;25.75;;;;;;;;;;5052363;28;20484;-60
2021/10/07 02:15:13;;;;;;;38.45;26.55;;;;;;;;;;5051126;28;20033;-61
2021/10/07 02:17:39;;;;;;;39.38;27.17;;;;;;;;;;5052158;28;20488;-61
2021/10/07 02:20:07;;;;;;;36.88;25.20;;;;;;;;;;5051427;28;20472;-60
2021/10/07 02:22:33;;;;;;;41.85;25.77;;;;;;;;;;5050939;28;20028;-60
2021/10/07 02:24:59;;;;;;;36.85;25.40;;;;;;;;;;5051871;28;20037;-60
2021/10/07 02:27:25;;;;;;;38.47;27.27;;;;;;;;;;5050867;28;20094;-61
2021/10/07 02:29:52;;;;;;;37.28;25.40;;;;;;;;;;5051919;28;20094;-60
2021/10/07 02:32:18;;;;;;;39.45;27.08;;;;;;;;;;5052076;28;20025;-61
2021/10/07 02:34:44;;;;;;;42.28;27.98;;;;;;;;;;5050699;28;20075;-62
2021/10/07 02:37:10;;;;;;;45.47;30.05;;;;;;;;;;5051912;28;20387;-58
2021/10/07 02:39:36;;;;;;;44.22;27.45;;;;;;;;;;5051783;28;20028;-58
2021/10/07 02:42:02;;;;;;;46.08;29.70;;;;;;;;;;5050672;28;20048;-60
2021/10/07 02:44:28;;;;;;;44.60;28.42;;;;;;;;;;5052012;28;20388;-60
2021/10/07 02:46:55;;;;;;;47.97;28.73;;;;;;;;;;5050340;28;20036;-61
2021/10/07 02:49:21;;;;;;;47.03;28.52;;;;;;;;;;5050669;28;20079;-62
2021/10/07 02:51:47;;;;;;;47.75;30.10;;;;;;;;;;5050486;28;20018;-60
2021/10/07 02:54:13;;;;;;;48.53;30.58;;;;;;;;;;5050571;28;20094;-61
2021/10/07 02:56:39;;;;;;;46.67;29.55;;;;;;;;;;5052325;28;20021;-59
2021/10/07 02:59:05;;;;;;;55.08;30.63;;;;;;;;;;5050423;28;20116;-58
2021/10/07 03:01:31;;;;;;;52.15;30.40;;;;;;;;;;5050255;28;20480;-61
2021/10/07 03:03:57;;;;;;;48.65;29.83;;;;;;;;;;5050502;28;20024;-60
2021/10/07 03:06:23;;;;;;;51.45;29.77;;;;;;;;;;5050407;28;20025;-61
2021/10/07 03:08:49;;;;;;;53.05;31.30;;;;;;;;;;5050238;28;20029;-59
2021/10/07 03:11:15;;;;;;;50.15;30.13;;;;;;;;;;5051565;28;20021;-61
2021/10/07 03:13:41;;;;;;;63.55;31.75;;;;;;;;;;5050350;28;20028;-60
2021/10/07 03:16:07;;;;;;;55.92;31.55;;;;;;;;;;5050387;28;20020;-62
2021/10/07 03:18:33;;;;;;;53.00;30.15;;;;;;;;;;5051606;28;20556;-60
2021/10/07 03:20:59;;;;;;;60.47;32.85;;;;;;;;;;5051440;28;20036;-59
2021/10/07 03:23:25;;;;;;;61.15;32.13;;;;;;;;;;5051491;28;20036;-61
2021/10/07 03:25:51;;;;;;;59.75;33.22;;;;;;;;;;5050327;28;20029;-60
2021/10/07 03:28:17;;;;;;;57.35;32.05;;;;;;;;;;5051391;28;20112;-61
2021/10/07 03:30:43;;;;;;;59.00;33.25;;;;;;;;;;5051800;28;20052;-60
2021/10/07 03:33:10;;;;;;;54.28;29.58;;;;;;;;;;5055022;28;20029;-61
2021/10/07 03:35:36;;;;;;;55.38;32.53;;;;;;;;;;5055214;28;20021;-62
2021/10/07 03:38:03;;;;;;;54.33;31.38;;;;;;;;;;5053950;28;20029;-57
2021/10/07 03:40:29;;;;;;;67.22;32.60;;;;;;;;;;5054958;28;20029;-58
2021/10/07 03:42:56;;;;;;;58.00;32.50;;;;;;;;;;5055183;28;20162;-60
2021/10/07 03:45:22;;;;;;;58.00;32.55;;;;;;;;;;5053474;28;20037;-58
2021/10/07 03:47:48;;;;;;;62.72;33.50;;;;;;;;;;5053770;28;20055;-59
2021/10/07 03:50:14;;;;;;;109.40;62.15;;;;;;;;;;5054593;28;20025;-61
2021/10/07 03:52:40;;;;;;;66.28;34.72;;;;;;;;;;5053375;28;20100;-58
2021/10/07 03:55:06;;;;;;;59.78;33.40;;;;;;;;;;5054625;28;20044;-57
2021/10/07 03:57:32;;;;;;;70.95;39.05;;;;;;;;;;5053311;28;20033;-62
2021/10/07 03:59:58;;;;;;;73.05;43.75;;;;;;;;;;5054794;28;20067;-62
2021/10/07 04:02:24;;;;;;;61.88;32.78;;;;;;;;;;5054790;28;20024;-61
2021/10/07 04:04:50;;;;;;;60.05;31.30;;;;;;;;;;5054341;28;20057;-60
2021/10/07 04:07:17;;;;;;;75.78;41.22;;;;;;;;;;5054231;28;20450;-59
2021/10/07 04:09:43;;;;;;;63.63;34.38;;;;;;;;;;5053338;28;20412;-60
2021/10/07 04:12:09;;;;;;;71.45;38.78;;;;;;;;;;5053201;28;20067;-59
2021/10/07 04:14:36;;;;;;;75.47;42.25;;;;;;;;;;5053156;28;20048;-61
2021/10/07 04:17:02;;;;;;;57.42;32.03;;;;;;;;;;5054350;28;20152;-62
2021/10/07 04:19:27;;;;;;;64.70;32.03;;;;;;;;;;5054262;28;20095;-62
2021/10/07 04:21:53;;;;;;;60.10;30.23;;;;;;;;;;5054109;28;20536;-59
2021/10/07 04:24:19;;;;;;;57.95;28.85;;;;;;;;;;5054305;28;20028;-59
2021/10/07 04:26:46;;;;;;;74.68;32.45;;;;;;;;;;5052706;28;20028;-62
2021/10/07 04:29:12;;;;;;;66.20;30.63;;;;;;;;;;5053805;28;20040;-61
2021/10/07 04:31:38;;;;;;;62.40;31.83;;;;;;;;;;5053812;28;20021;-61
2021/10/07 04:34:06;;;;;;;69.53;32.83;;;;;;;;;;5054055;28;20526;-61
2021/10/07 04:36:32;;;;;;;66.50;32.55;;;;;;;;;;5052584;28;20480;-61
2021/10/07 04:38:58;;;;;;;74.05;30.45;;;;;;;;;;5053807;28;20033;-60
2021/10/07 04:41:24;;;;;;;77.22;31.80;;;;;;;;;;5053412;28;20036;-61
2021/10/07 04:43:50;;;;;;;81.53;33.17;;;;;;;;;;5053017;28;20029;-60
2021/10/07 04:46:18;;;;;;;89.10;34.00;;;;;;;;;;5053252;28;20456;-60
2021/10/07 04:48:44;;;;;;;66.65;32.45;;;;;;;;;;5051866;28;20028;-60
2021/10/07 04:51:10;;;;;;;61.95;32.45;;;;;;;;;;5053195;28;20029;-61
2021/10/07 04:53:36;;;;;;;80.28;33.97;;;;;;;;;;5053724;28;20048;-61
2021/10/07 04:56:02;;;;;;;77.22;33.85;;;;;;;;;;5052071;28;20208;-60
2021/10/07 04:58:28;;;;;;;84.65;34.40;;;;;;;;;;5051967;28;20103;-58
2021/10/07 05:00:54;;;;;;;85.68;33.75;;;;;;;;;;5053065;28;20163;-61
2021/10/07 05:03:21;;;;;;;74.10;37.40;;;;;;;;;;5052999;28;20087;-61
2021/10/07 05:05:47;;;;;;;106.65;34.67;;;;;;;;;;5051672;28;20346;-61
2021/10/07 05:08:13;;;;;;;90.50;35.47;;;;;;;;;;5051798;28;20123;-56
2021/10/07 05:10:39;;;;;;;77.57;33.80;;;;;;;;;;5052755;28;20507;-58
2021/10/07 05:13:06;;;;;;;76.50;34.90;;;;;;;;;;5051552;28;20021;-59
2021/10/07 05:15:32;;;;;;;88.93;35.28;;;;;;;;;;5051319;28;20025;-61
2021/10/07 05:17:58;;;;;;;74.72;33.38;;;;;;;;;;5052650;28;20116;-59
2021/10/07 05:20:24;;;;;;;82.13;34.55;;;;;;;;;;5052559;28;20384;-61
2021/10/07 05:22:50;;;;;;;77.78;34.05;;;;;;;;;;5051460;28;20124;-58
2021/10/07 05:25:16;;;;;;;88.38;35.35;;;;;;;;;;5052660;28;20489;-60
2021/10/07 05:27:42;;;;;;;121.68;38.10;;;;;;;;;;5052229;28;20025;-59
2021/10/07 05:30:08;;;;;;;87.82;34.35;;;;;;;;;;5050566;28;20051;-59
2021/10/07 05:32:35;;;;;;;80.53;33.42;;;;;;;;;;5051122;28;20018;-55
2021/10/07 05:35:01;;;;;;;97.60;33.85;;;;;;;;;;5050971;28;20025;-60
2021/10/07 05:37:27;;;;;;;77.32;36.25;;;;;;;;;;5052728;28;20087;-60
2021/10/07 05:39:53;;;;;;;80.63;34.30;;;;;;;;;;5052061;28;20032;-60
2021/10/07 05:42:19;;;;;;;72.93;32.83;;;;;;;;;;5051818;28;20039;-59
2021/10/07 05:44:45;;;;;;;76.35;36.92;;;;;;;;;;5049161;28;20393;-61
2021/10/07 05:47:11;;;;;;;74.32;33.85;;;;;;;;;;5051893;28;20477;-61
2021/10/07 05:49:37;;;;;;;81.25;35.03;;;;;;;;;;5051754;28;20032;-62
2021/10/07 05:52:04;;;;;;;81.57;35.38;;;;;;;;;;5051429;28;20056;-61
2021/10/07 05:54:30;;;;;;;95.43;34.15;;;;;;;;;;5050737;28;20021;-61
2021/10/07 05:56:57;;;;;;;75.05;33.72;;;;;;;;;;5049570;28;20112;-61
2021/10/07 05:59:23;;;;;;;76.43;31.70;;;;;;;;;;5049393;28;20025;-60
2021/10/07 06:01:49;;;;;;;75.75;32.50;;;;;;;;;;5050851;28;20094;-61
2021/10/07 06:04:15;;;;;;;73.40;34.38;;;;;;;;;;5051271;28;20109;-60
2021/10/07 06:06:45;;;;;;;75.70;34.95;;;;;;;;;;5049218;28;20032;-58
2021/10/07 06:09:11;;;;;;;73.40;33.72;;;;;;;;;;5049164;28;20127;-60
2021/10/07 06:11:38;;;;;;;73.18;32.13;;;;;;;;;;5050682;28;20025;-60
2021/10/07 06:14:04;;;;;;;70.90;33.80;;;;;;;;;;5050597;28;20044;-60
2021/10/07 06:16:32;;;;;;;71.30;34.13;;;;;;;;;;5051173;28;20046;-60
2021/10/07 06:18:58;;;;;;;67.68;32.97;;;;;;;;;;5050793;28;20028;-59
2021/10/07 06:21:24;;;;;;;75.72;37.67;;;;;;;;;;5050564;28;20021;-59
2021/10/07 06:23:50;;;;;;;81.03;36.50;;;;;;;;;;5050616;28;20037;-60
2021/10/07 06:26:16;;;;;;;65.93;34.03;;;;;;;;;;5050851;28;20043;-62
2021/10/07 06:28:42;;;;;;;66.55;33.38;;;;;;;;;;5050747;28;20492;-61
2021/10/07 06:31:08;;;;;;;64.78;32.72;;;;;;;;;;5050877;28;20464;-62
2021/10/07 06:33:34;;;;;;;65.30;30.33;;;;;;;;;;5049190;28;20018;-62
2021/10/07 06:36:01;;;;;;;61.42;29.95;;;;;;;;;;5050738;28;20653;-62
2021/10/07 06:38:27;;;;;;;61.90;30.95;;;;;;;;;;5050413;28;20025;-61
2021/10/07 06:40:53;;;;;;;68.65;32.40;;;;;;;;;;5050794;28;20435;-62
2021/10/07 06:43:19;;;;;;;65.97;34.67;;;;;;;;;;5050883;28;20035;-62
2021/10/07 06:45:45;;;;;;;72.57;34.92;;;;;;;;;;5069885;22;20493;-63
2021/10/07 06:48:11;;;;;;;69.10;35.20;;;;;;;;;;5028776;28;20592;-64
2021/10/07 06:50:42;;;;;;;73.80;36.15;;;;;;;;;;5029181;28;20044;-64
2021/10/07 06:53:08;;;;;;;79.88;37.20;;;;;;;;;;5029599;28;20037;-64
2021/10/07 06:55:34;;;;;;;76.45;38.60;;;;;;;;;;5028236;28;20460;-65
2021/10/07 06:58:00;;;;;;;81.07;38.40;;;;;;;;;;5029992;28;20060;-65
2021/10/07 07:00:26;;;;;;;73.40;34.35;;;;;;;;;;5028700;28;20029;-67
2021/10/07 07:02:53;;;;;;;60.92;32.78;;;;;;;;;;5028320;28;20075;-67
2021/10/07 07:05:19;;;;;;;58.97;32.88;;;;;;;;;;5028227;28;20055;-64
2021/10/07 07:07:45;;;;;;;55.33;28.33;;;;;;;;;;5033370;28;20112;-66
2021/10/07 07:10:17;;;;;;;57.25;29.05;;;;;;;;;;5032070;28;20021;-66
2021/10/07 07:12:46;;;;;;;57.33;31.02;;;;;;;;;;5033542;28;20151;-65
2021/10/07 07:15:13;;;;;;;54.15;28.83;;;;;;;;;;5034170;28;20049;-67
2021/10/07 07:17:38;;;;;;;50.13;28.20;;;;;;;;;;5033752;28;20026;-65
2021/10/07 07:20:05;;;;;;;53.25;29.35;;;;;;;;;;5033787;28;20078;-68
2021/10/07 07:22:31;;;;;;;44.88;26.80;;;;;;;;;;5034002;28;20026;-67
2021/10/07 07:24:57;;;;;;;46.47;26.02;;;;;;;;;;5033449;28;20101;-64
2021/10/07 07:27:23;;;;;;;55.83;28.95;;;;;;;;;;5034222;28;20113;-67
2021/10/07 07:29:49;;;;;;;48.42;27.55;;;;;;;;;;5033496;28;20067;-65
2021/10/07 07:32:16;;;;;;;50.47;27.35;;;;;;;;;;5033681;28;20544;-65
2021/10/07 07:34:42;;;;;;;51.00;28.38;;;;;;;;;;5033336;28;20021;-67
2021/10/07 07:37:08;;;;;;;47.72;26.48;;;;;;;;;;5032000;28;20022;-68
2021/10/07 07:39:34;;;;;;;43.25;26.75;;;;;;;;;;5033048;28;20032;-67
2021/10/07 07:42:00;;;;;;;41.60;24.65;;;;;;;;;;5033468;28;20030;-67
2021/10/07 07:44:26;;;;;;;45.25;26.92;;;;;;;;;;5033498;28;20022;-65
2021/10/07 07:46:52;;;;;;;43.15;25.30;;;;;;;;;;5033074;28;20037;-66
2021/10/07 07:49:18;;;;;;;40.40;23.50;;;;;;;;;;5033369;28;20107;-67
2021/10/07 07:51:44;;;;;;;36.55;22.85;;;;;;;;;;5031657;28;20437;-65
2021/10/07 07:54:10;;;;;;;40.30;24.42;;;;;;;;;;5033291;28;20400;-67
2021/10/07 07:56:37;;;;;;;37.50;21.25;;;;;;;;;;5033059;28;20047;-67
2021/10/07 07:59:03;;;;;;;38.25;21.27;;;;;;;;;;5031594;28;20044;-65
2021/10/07 08:01:31;;;;;;;35.55;21.60;;;;;;;;;;5032591;28;20032;-66
2021/10/07 08:03:57;;;;;;;37.95;21.45;;;;;;;;;;5031790;28;20430;-66
2021/10/07 08:06:23;;;;;;;34.50;21.98;;;;;;;;;;5032931;28;20025;-67
2021/10/07 08:08:49;;;;;;;34.35;20.70;;;;;;;;;;5031016;28;20496;-65
2021/10/07 08:11:15;;;;;;;32.30;20.38;;;;;;;;;;5032530;28;20075;-66
2021/10/07 08:13:41;;;;;;;32.63;20.33;;;;;;;;;;5032000;28;20104;-68
2021/10/07 08:16:07;;;;;;;35.38;20.30;;;;;;;;;;5032826;28;20009;-66
2021/10/07 08:18:33;;;;;;;33.17;21.25;;;;;;;;;;5031939;28;20128;-67
2021/10/07 08:20:59;;;;;;;32.03;19.45;;;;;;;;;;5032535;28;20130;-67
2021/10/07 08:23:29;;;;;;;30.45;18.70;;;;;;;;;;5032679;28;20093;-66
2021/10/07 08:25:55;;;;;;;33.30;20.75;;;;;;;;;;5032501;28;20041;-67
2021/10/07 08:28:22;;;;;;;32.13;18.95;;;;;;;;;;5031200;28;20029;-66
2021/10/07 08:30:48;;;;;;;31.27;18.88;;;;;;;;;;5032114;28;20034;-67
2021/10/07 08:33:14;;;;;;;33.75;18.75;;;;;;;;;;5031388;28;20151;-66
2021/10/07 08:35:40;;;;;;;33.80;18.48;;;;;;;;;;5032341;28;20400;-66
2021/10/07 08:38:06;;;;;;;31.85;19.25;;;;;;;;;;5031118;28;20469;-67
2021/10/07 08:40:32;;;;;;;32.35;19.23;;;;;;;;;;5032409;28;20153;-67
2021/10/07 08:42:59;;;;;;;36.65;19.58;;;;;;;;;;5032218;28;20578;-67
2021/10/07 08:45:27;;;;;;;33.20;19.50;;;;;;;;;;5032297;28;20029;-66
2021/10/07 08:47:54;;;;;;;33.03;19.77;;;;;;;;;;5030765;28;20025;-67
2021/10/07 08:50:21;;;;;;;31.13;18.08;;;;;;;;;;5032311;28;20666;-67
2021/10/07 08:52:47;;;;;;;34.15;19.98;;;;;;;;;;5031043;28;20026;-66
2021/10/07 08:55:13;;;;;;;34.78;20.98;;;;;;;;;;5032174;28;20076;-66
2021/10/07 08:57:39;;;;;;;35.05;21.38;;;;;;;;;;5032308;28;20033;-66
2021/10/07 09:00:11;;;;;;;31.17;18.58;;;;;;;;;;5032550;28;20056;-71
2021/10/07 09:02:38;;;;;;;34.15;19.58;;;;;;;;;;5032848;28;20079;-66
2021/10/07 09:05:09;;;;;;;34.97;18.63;;;;;;;;;;5030591;28;20032;-65
2021/10/07 09:07:52;;;;;;;33.70;18.65;;;;;;;;;;5030667;28;20079;-66
2021/10/07 09:10:17;;;;;;;29.30;17.58;;;;;;;;;;5031821;28;20040;-67
2021/10/07 09:13:03;;;;;;;32.47;18.92;;;;;;;;;;5032499;28;20030;-64
2021/10/07 09:15:29;;;;;;;30.65;17.90;;;;;;;;;;5030369;28;20056;-67
2021/10/07 09:17:55;;;;;;;34.40;19.42;;;;;;;;;;5030270;28;20096;-66
2021/10/07 09:20:48;;;;;;;32.95;19.65;;;;;;;;;;5031589;28;20033;-67
2021/10/07 09:23:16;;;;;;;35.30;20.10;;;;;;;;;;5028900;28;20438;-66
2021/10/07 09:25:56;;;;;;;35.95;19.92;;;;;;;;;;5031304;28;20032;-66
2021/10/07 09:28:22;;;;;;;61.00;22.13;;;;;;;;;;5031493;28;20057;-65
2021/10/07 09:30:56;;;;;;;36.42;19.60;;;;;;;;;;5029645;28;20021;-65
2021/10/07 09:33:29;;;;;;;36.63;19.25;;;;;;;;;;5031379;28;20026;-66
2021/10/07 09:36:14;;;;;;;33.83;18.98;;;;;;;;;;5030139;28;20493;-67
2021/10/07 09:38:40;;;;;;;46.88;19.88;;;;;;;;;;5030207;28;20105;-65
2021/10/07 09:41:10;;;;;;;35.38;19.98;;;;;;;;;;5029862;28;20036;-66
2021/10/07 09:43:46;;;;;;;35.33;19.05;;;;;;;;;;5031371;28;20667;-66
2021/10/07 09:46:13;;;;;;;35.10;20.88;;;;;;;;;;5030917;28;20037;-67
2021/10/07 09:48:39;;;;;;;41.22;20.98;;;;;;;;;;5013153;28;20029;-66
2021/10/07 09:51:15;;;;;;;41.92;20.92;;;;;;;;;;5011110;28;20470;-65
2021/10/07 09:53:45;;;;;;;35.15;21.02;;;;;;;;;;5011640;28;20381;-66
2021/10/07 09:56:31;;;;;;;33.63;20.05;;;;;;;;;;5009909;28;20035;-66
2021/10/07 09:58:58;;;;;;;31.40;20.42;;;;;;;;;;5010110;28;20108;-66
2021/10/07 10:01:24;;;;;;;35.40;21.27;;;;;;;;;;5009342;28;20041;-66
2021/10/07 10:03:50;;;;;;;31.60;20.15;;;;;;;;;;5011016;28;20041;-67
2021/10/07 10:06:16;;;;;;;38.47;22.92;;;;;;;;;;5010501;28;20380;-64
2021/10/07 10:08:42;;;;;;;33.10;21.17;;;;;;;;;;5010881;28;20484;-65
2021/10/07 10:11:08;;;;;;;31.75;20.52;;;;;;;;;;5009199;28;20397;-64
2021/10/07 10:13:34;;;;;;;46.38;21.05;;;;;;;;;;5010387;28;20025;-66
2021/10/07 10:16:00;;;;;;;33.17;20.95;;;;;;;;;;5009147;28;20025;-66
2021/10/07 10:18:28;;;;;;;33.15;21.58;;;;;;;;;;5009256;28;20026;-66
2021/10/07 10:20:55;;;;;;;30.10;19.80;;;;;;;;;;5008902;28;20476;-66
2021/10/07 10:23:22;;;;;;;30.63;18.98;;;;;;;;;;5009221;28;20030;-65
2021/10/07 10:25:51;;;;;;;28.73;17.95;;;;;;;;;;5010468;28;20029;-65
2021/10/07 10:28:17;;;;;;;30.13;18.85;;;;;;;;;;5009014;28;20047;-65
2021/10/07 10:30:44;;;;;;;29.60;18.70;;;;;;;;;;5010395;28;20026;-65
2021/10/07 10:33:26;;;;;;;30.25;18.70;;;;;;;;;;5010306;28;20041;-65
2021/10/07 10:35:52;;;;;;;31.67;19.75;;;;;;;;;;5009915;28;20053;-65
2021/10/07 10:38:18;;;;;;;27.25;17.60;;;;;;;;;;5008951;28;20037;-65
2021/10/07 10:40:44;;;;;;;30.50;18.45;;;;;;;;;;5009493;28;20516;-67
2021/10/07 10:43:19;;;;;;;28.63;17.85;;;;;;;;;;5010443;28;20069;-66
2021/10/07 10:45:46;;;;;;;30.75;17.20;;;;;;;;;;5010110;28;20079;-64
2021/10/07 10:48:13;;;;;;;32.97;18.88;;;;;;;;;;5024654;28;20040;-66
2021/10/07 10:50:39;;;;;;;30.90;17.70;;;;;;;;;;5029526;28;20108;-66
2021/10/07 10:53:21;;;;;;;32.28;18.20;;;;;;;;;;5029419;28;20127;-66
2021/10/07 10:55:49;;;;;;;30.52;17.55;;;;;;;;;;5029943;28;20032;-65
2021/10/07 10:58:17;;;;;;;34.53;18.27;;;;;;;;;;5029495;28;20033;-67
2021/10/07 11:00:43;;;;;;;30.25;17.15;;;;;;;;;;5029253;28;20028;-67
2021/10/07 11:03:14;;;;;;;30.55;16.63;;;;;;;;;;5028044;28;20107;-67
2021/10/07 11:05:57;;;;;;;32.33;18.48;;;;;;;;;;5029443;28;20029;-65
2021/10/07 11:08:23;;;;;;;32.05;18.48;;;;;;;;;;5029274;28;20464;-67
2021/10/07 11:10:50;;;;;;;28.13;17.30;;;;;;;;;;5029424;28;20026;-67
2021/10/07 11:13:21;;;;;;;29.60;17.92;;;;;;;;;;5029487;28;20045;-67
2021/10/07 11:15:49;;;;;;;28.77;17.15;;;;;;;;;;5029297;28;20104;-66
2021/10/07 11:18:15;;;;;;;30.80;17.17;;;;;;;;;;5029898;28;20032;-67
2021/10/07 11:20:41;;;;;;;32.58;18.20;;;;;;;;;;5029729;28;20029;-66
2021/10/07 11:23:10;;;;;;;29.38;17.55;;;;;;;;;;5029606;28;20481;-63
2021/10/07 11:25:38;;;;;;;30.65;20.05;;;;;;;;;;5028866;28;20608;-66
2021/10/07 11:28:05;;;;;;;31.58;18.00;;;;;;;;;;5030134;28;20357;-67
2021/10/07 11:30:34;;;;;;;33.40;20.58;;;;;;;;;;5029817;28;20053;-67
2021/10/07 11:33:00;;;;;;;30.80;19.00;;;;;;;;;;5029651;28;20021;-71
2021/10/07 11:35:26;;;;;;;34.20;18.63;;;;;;;;;;5029720;28;20017;-65
2021/10/07 11:37:52;;;;;;;29.15;19.10;;;;;;;;;;5028352;28;20030;-66
2021/10/07 11:40:22;;;;;;;30.17;18.55;;;;;;;;;;5029659;28;20036;-65
2021/10/07 11:42:48;;;;;;;29.42;17.50;;;;;;;;;;5029744;28;20026;-67
2021/10/07 11:45:19;;;;;;;27.80;17.33;;;;;;;;;;5029908;28;20424;-66
2021/10/07 11:47:45;;;;;;;33.35;19.38;;;;;;;;;;5028222;28;20029;-65
2021/10/07 11:50:14;;;;;;;31.30;18.83;;;;;;;;;;5029654;28;20059;-66
2021/10/07 11:52:41;;;;;;;29.83;18.90;;;;;;;;;;5030136;28;20054;-66
2021/10/07 11:55:07;;;;;;;30.75;19.23;;;;;;;;;;5033384;28;20022;-66
2021/10/07 11:57:33;;;;;;;33.63;19.98;;;;;;;;;;5033341;28;20109;-66
2021/10/07 11:59:59;;;;;;;30.95;19.10;;;;;;;;;;5033243;28;20021;-66
2021/10/07 12:02:25;;;;;;;31.70;19.38;;;;;;;;;;5033389;28;20083;-66
2021/10/07 12:04:51;;;;;;;28.42;18.42;;;;;;;;;;5033549;28;20026;-64
2021/10/07 12:07:17;;;;;;;28.25;19.55;;;;;;;;;;5033169;28;20055;-66
2021/10/07 12:09:44;;;;;;;30.20;19.77;;;;;;;;;;5033109;28;20025;-65
2021/10/07 12:12:10;;;;;;;28.80;19.00;;;10.70;99.90;;;;;;5033203;28;20025;-65
2021/10/07 12:14:38;;;;;;;29.33;19.40;;;;;;;;;;5031713;28;20029;-66
2021/10/07 12:17:04;;;;;;;28.30;20.73;;;;;;;;;;5032495;28;20365;-66
2021/10/07 12:19:31;;;;;;;32.22;22.13;;;;;;;;;;5031703;28;20041;-64
2021/10/07 12:22:02;;;;;;;24.88;20.25;;;;;;;;;;5031398;28;20080;-67
2021/10/07 12:24:30;;;;;;;25.20;20.42;;;;;;;;;;5032767;28;20448;-66
2021/10/07 12:27:00;;;;;;;30.17;21.90;;;;;;;;;;5031298;28;20025;-65
2021/10/07 12:29:28;;;;;;;27.55;20.42;;;;;;;;;;5031372;28;20491;-63
2021/10/07 12:32:02;;;;;;;26.93;21.63;;;;;;;;;;5031445;28;20026;-66
2021/10/07 12:34:28;;;;;;;26.17;22.00;;;;;;;;;;5032655;28;20028;-66
2021/10/07 12:36:55;;;;;;;25.77;21.40;;;;;;;;;;5032104;28;20029;-65
2021/10/07 12:39:24;;;;;;;25.73;20.90;;;;;;;;;;5032341;28;20026;-67
2021/10/07 12:41:55;;;;;;;28.38;23.02;;;;;;;;;;5033645;28;20056;-64
2021/10/07 12:44:23;;;;;;;27.27;20.60;;;;;;;;;;5032194;28;20044;-65
2021/10/07 12:46:50;;;;;;;26.48;20.95;;;;;;;;;;5058049;22;20499;-60
2021/10/07 12:49:17;;;;;;;25.83;20.95;;;;;;;;;;5073723;28;20037;-57
2021/10/07 12:51:47;;;;;;;27.02;21.27;;;;;;;;;;5072771;28;20447;-57
2021/10/07 12:54:14;;;;;;;22.75;19.77;;;;;;;;;;5073068;28;20480;-57
2021/10/07 12:56:41;;;;;;;26.63;21.02;;;;;;;;;;5073045;28;20032;-58
2021/10/07 12:59:08;;;;;;;25.80;20.80;;;;;;;;;;5071557;28;20020;-61
2021/10/07 13:01:43;;;;;;;21.95;18.30;;;;;;;;;;5071412;28;20059;-58
2021/10/07 13:04:10;;;;;;;26.13;20.58;;;;;;;;;;5071600;28;20025;-60
2021/10/07 13:06:36;;;;;;;25.65;20.50;;;;;;;;;;5073177;28;20393;-61
2021/10/07 13:09:03;;;;;;;25.95;20.30;;;;;;;;;;5073318;28;20032;-60
2021/10/07 13:11:29;;;;;;;23.63;20.15;;;;;;;;;;5072879;28;20016;-59
2021/10/07 13:13:57;;;;;;;35.40;22.75;;;;;;;;;;5072986;28;20031;-57
2021/10/07 13:16:23;;;;;;;23.70;20.58;;;;;;;;;;5072509;28;20491;-56
2021/10/07 13:18:49;;;;;;;28.40;22.23;;;;;;;;;;5072885;28;20025;-60
2021/10/07 13:21:15;;;;;;;28.40;21.95;;;;;;;;;;5071417;28;20430;-55
2021/10/07 13:23:41;;;;;;;24.38;19.90;;;;;;;;;;5071855;28;20029;-57
2021/10/07 13:26:09;;;;;;;23.45;20.02;;;;;;;;;;5072540;28;20031;-59
2021/10/07 13:28:35;;;;;;;25.80;20.55;;;;;;;;;;5072109;28;20024;-56
2021/10/07 13:31:01;;;;;;;30.00;21.50;;;;;;;;;;5071309;28;20028;-55
2021/10/07 13:33:27;;;;;;;30.63;19.38;;;;;;;;;;5073087;28;20017;-57
2021/10/07 13:35:53;;;;;;;25.63;20.38;;;;;;;;;;5071675;28;20426;-59
2021/10/07 13:38:21;;;;;;;21.48;18.15;;;;;;;;;;5071574;28;20116;-59
2021/10/07 13:40:49;;;;;;;23.27;17.65;;;;;;;;;;5070589;28;20235;-58
2021/10/07 13:43:15;;;;;;;21.80;17.80;;;;;;;;;;5072028;28;20044;-60
2021/10/07 13:45:41;;;;;;;22.08;18.75;;;;;;;;;;5071772;28;20025;-60
2021/10/07 13:48:07;;;;;;;22.58;18.38;;;;;;;;;;5071580;28;20063;-57
2021/10/07 13:50:33;;;;;;;22.83;18.80;;;;;;;;;;5069674;28;20023;-59
2021/10/07 13:53:02;;;;;;;22.40;18.35;;;;;;;;;;5072281;28;20391;-57
2021/10/07 13:55:28;;;;;;;24.90;18.65;;;;;;;;;;5071947;28;20024;-58
2021/10/07 13:57:55;;;;;;;22.98;18.92;;;;;;;;;;5071660;28;20103;-57
2021/10/07 14:00:22;;;;;;;21.15;17.98;;;;;;;;;;5071396;28;20078;-59
2021/10/07 14:02:48;;;;;;;22.98;19.08;;;;;;;;;;5071186;28;20036;-58
2021/10/07 14:05:15;;;;;;;24.42;18.08;;;;;;;;;;5071287;28;20491;-54
2021/10/07 14:07:41;;;;;;;22.92;19.30;;;;;;;;;;5070706;28;20142;-61
2021/10/07 14:10:07;;;;;;;20.88;18.33;;;;;;;;;;5070497;28;20119;-57
2021/10/07 14:12:33;;;;;;;22.73;18.20;;;;;;;;;;5071308;28;20020;-58
2021/10/07 14:14:59;;;;;;;22.08;18.63;;;;;;;;;;5071081;28;20054;-57
2021/10/07 14:17:25;;;;;;;22.27;18.23;;;;;;;;;;5069322;28;20028;-58
2021/10/07 14:19:52;;;;;;;23.58;18.90;;;;;;;;;;5071366;28;20050;-59
2021/10/07 14:22:18;;;;;;;22.23;18.30;;;;;;;;;;5070315;28;20493;-57
2021/10/07 14:24:44;;;;;;;23.00;18.40;;;;;;;;;;5069552;28;20036;-59